Milton-Freewater, Oregon
Current Conditions -  °F | °C
As of 6:53 PM on Sunday 21 Dec 2014 (Local Time) from KALW Reporting Station
Broken Clouds Broken Clouds  
Wind Chill: 45°   Ceiling: 11000
Heat Index: 49°   Visibility: 10mi
Dew Point: 41°   Wind: 9mph
Humidity: 74%   Direction: 190°S
Pressure: 30.05"   Gusts: NA
Location:  45.9139°N, 118.202°W
Report Text: KALW 220253Z AUTO 19008KT 10SM BKN110 09/05 A3005 RMK AO2 SLP178 T00940050 53017
Loading
Personal Weather Stations






























Interactive Weather Map New forecast layout! Learn more

10-Day Weather Forecast

Advertisements
Track Severe Weather on mobile